createdAt,value
2018-11-10T00:00:37.465Z,9.58
2018-11-10T00:03:10.042Z,9.96
2018-11-10T00:05:40.981Z,10.29
2018-11-10T00:08:14.505Z,10.57
2018-11-10T00:10:45.829Z,10.83
2018-11-10T00:13:18.920Z,10.89
2018-11-10T00:15:50.882Z,10.98
2018-11-10T00:18:21.828Z,10.99
2018-11-10T00:20:53.988Z,11.15
2018-11-10T00:23:24.283Z,11.28
2018-11-10T00:25:55.561Z,11.27
2018-11-10T00:28:26.296Z,11.22
2018-11-10T00:30:57.337Z,11.20
2018-11-10T00:33:29.914Z,11.21
2018-11-10T00:36:00.853Z,11.10
2018-11-10T00:38:31.486Z,11.12
2018-11-10T00:41:03.858Z,11.10
2018-11-10T00:43:34.353Z,11.09
2018-11-10T00:46:06.863Z,11.22
2018-11-10T00:48:37.497Z,11.18
2018-11-10T00:51:09.454Z,11.21
2018-11-10T00:53:40.602Z,11.30
2018-11-10T00:56:11.337Z,11.27
2018-11-10T00:58:43.513Z,11.29
2018-11-10T01:01:14.779Z,11.29
2018-11-10T01:03:48.533Z,11.29
2018-11-10T01:06:20.832Z,11.30
2018-11-10T01:08:56.577Z,11.27
2018-11-10T01:11:27.522Z,11.20
2018-11-10T01:13:59.673Z,11.21
2018-11-10T01:16:38.409Z,11.19
2018-11-10T01:19:10.886Z,11.15
2018-11-10T01:21:43.053Z,11.16
2018-11-10T01:24:16.757Z,11.14
2018-11-10T01:26:50.976Z,11.17
2018-11-10T01:29:22.073Z,11.09
2018-11-10T01:31:54.486Z,10.98
2018-11-10T01:34:25.046Z,10.89
2018-11-10T01:36:55.652Z,10.83
2018-11-10T01:39:27.208Z,10.78
2018-11-10T01:41:58.468Z,10.85
2018-11-10T01:44:29.083Z,10.87
2018-11-10T01:47:01.247Z,10.81
2018-11-10T01:49:33.112Z,10.72
2018-11-10T01:52:05.467Z,10.73
2018-11-10T01:54:36.529Z,10.66
2018-11-10T01:57:07.568Z,10.64
2018-11-10T01:59:39.225Z,10.58
2018-11-10T02:02:10.164Z,10.63
2018-11-10T02:04:41.061Z,10.61
2018-11-10T02:07:12.553Z,10.54
2018-11-10T02:09:44.594Z,10.44
2018-11-10T02:12:19.655Z,10.43
2018-11-10T02:14:51.413Z,10.46
2018-11-10T02:17:22.150Z,10.44
2018-11-10T02:19:53.598Z,10.40
2018-11-10T02:22:25.464Z,10.47
2018-11-10T02:24:59.886Z,10.48
2018-11-10T02:27:32.766Z,10.43
2018-11-10T02:30:03.206Z,10.45
2018-11-10T02:32:34.031Z,10.42
2018-11-10T02:35:06.142Z,10.46
2018-11-10T02:37:38.525Z,10.44
2018-11-10T02:40:12.583Z,10.44
2018-11-10T02:42:44.818Z,10.45
2018-11-10T02:45:17.019Z,10.43
2018-11-10T02:47:47.551Z,10.41
2018-11-10T02:50:19.105Z,10.36
2018-11-10T02:52:50.265Z,10.35
2018-11-10T02:55:21.398Z,10.36
2018-11-10T02:57:54.583Z,10.27
2018-11-10T03:00:26.057Z,10.26
2018-11-10T03:02:56.251Z,10.31
2018-11-10T03:05:26.888Z,10.34
2018-11-10T03:07:59.359Z,10.34
2018-11-10T03:10:29.706Z,10.42
2018-11-10T03:13:00.832Z,10.42
2018-11-10T03:15:31.301Z,10.46
2018-11-10T03:18:02.302Z,10.38
2018-11-10T03:20:32.725Z,10.34
2018-11-10T03:23:11.347Z,10.34
2018-11-10T03:25:46.997Z,10.23
2018-11-10T03:28:17.837Z,10.20
2018-11-10T03:30:47.749Z,10.13
2018-11-10T03:33:18.930Z,10.13
2018-11-10T03:35:51.047Z,10.08
2018-11-10T03:38:23.539Z,10.08
2018-11-10T03:40:54.065Z,10.11
2018-11-10T03:43:25.107Z,10.12
2018-11-10T03:45:56.660Z,10.25
2018-11-10T03:48:28.488Z,10.24
2018-11-10T03:50:59.049Z,10.25
2018-11-10T03:53:30.946Z,10.33
2018-11-10T03:56:01.511Z,10.26
2018-11-10T03:58:32.688Z,10.26
2018-11-10T04:01:10.692Z,10.32
2018-11-10T04:03:43.169Z,10.30
2018-11-10T04:06:15.029Z,10.42
2018-11-10T04:08:46.579Z,10.34
2018-11-10T04:11:18.339Z,10.30
2018-11-10T04:13:50.100Z,10.30
2018-11-10T04:16:22.166Z,10.44
2018-11-10T04:18:53.718Z,10.42
2018-11-10T04:21:25.374Z,10.51
2018-11-10T04:23:56.514Z,10.36
2018-11-10T04:26:28.789Z,10.36
2018-11-10T04:28:59.523Z,10.52
2018-11-10T04:31:31.486Z,10.63
2018-11-10T04:34:02.323Z,10.64
2018-11-10T04:36:33.672Z,10.67
2018-11-10T04:39:04.407Z,10.64
2018-11-10T04:41:35.853Z,10.63
2018-11-10T04:44:07.411Z,10.61
2018-11-10T04:46:38.760Z,10.59
2018-11-10T04:49:11.030Z,10.57
2018-11-10T04:51:44.018Z,10.60
2018-11-10T04:54:14.957Z,10.51
2018-11-10T04:56:46.715Z,10.52
2018-11-10T04:59:20.108Z,10.53
2018-11-10T05:01:54.550Z,10.53
2018-11-10T05:04:24.863Z,10.48
2018-11-10T05:06:57.253Z,10.53
2018-11-10T05:09:29.091Z,10.58
2018-11-10T05:12:00.440Z,10.68
2018-11-10T05:14:31.993Z,10.60
2018-11-10T05:17:02.627Z,10.57
2018-11-10T05:19:34.691Z,10.51
2018-11-10T05:22:05.733Z,10.47
2018-11-10T05:24:36.467Z,10.44
2018-11-10T05:27:07.508Z,10.34
2018-11-10T05:29:39.268Z,10.34
2018-11-10T05:32:11.745Z,10.31
2018-11-10T05:34:42.784Z,10.16
2018-11-10T05:37:14.031Z,10.06
2018-11-10T05:39:44.658Z,10.04
2018-11-10T05:42:15.393Z,9.90
2018-11-10T05:44:46.330Z,9.93
2018-11-10T05:47:17.891Z,9.90
2018-11-10T05:49:53.744Z,9.89
2018-11-10T05:52:27.243Z,9.88
2018-11-10T05:54:59.204Z,9.94
2018-11-10T05:57:30.044Z,9.96
2018-11-10T06:00:02.009Z,9.94
2018-11-10T06:02:32.740Z,9.91
2018-11-10T06:05:03.368Z,9.98
2018-11-10T06:07:34.757Z,9.98
2018-11-10T06:10:05.825Z,9.95
2018-11-10T06:12:36.596Z,10.03
2018-11-10T06:15:10.423Z,10.13
2018-11-10T06:17:41.239Z,10.13
2018-11-10T06:20:13.516Z,10.18
2018-11-10T06:22:44.555Z,10.12
2018-11-10T06:25:15.894Z,10.13
2018-11-10T06:27:47.454Z,10.12
2018-11-10T06:30:22.273Z,10.16
2018-11-10T06:32:58.454Z,10.22
2018-11-10T06:35:36.967Z,10.25
2018-11-10T06:38:13.133Z,10.32
2018-11-10T06:40:48.368Z,10.31
2018-11-10T06:43:24.731Z,10.31
2018-11-10T06:45:57.620Z,10.33
2018-11-10T06:48:30.510Z,10.31
2018-11-10T06:51:05.437Z,10.46
2018-11-10T06:53:42.008Z,10.51
2018-11-10T06:56:13.251Z,10.50
2018-11-10T06:58:45.423Z,10.50
2018-11-10T07:01:17.283Z,10.52
2018-11-10T07:03:49.348Z,10.47
2018-11-10T07:06:22.946Z,10.41
2018-11-10T07:08:56.653Z,10.38
2018-11-10T07:11:29.538Z,10.41
2018-11-10T07:14:01.799Z,10.43
2018-11-10T07:16:35.411Z,10.43
2018-11-10T07:19:07.883Z,10.44
2018-11-10T07:21:40.243Z,10.50
2018-11-10T07:24:11.603Z,10.62
2018-11-10T07:26:43.559Z,10.63
2018-11-10T07:29:21.117Z,10.71
2018-11-10T07:31:58.151Z,10.76
2018-11-10T07:34:33.381Z,10.82
2018-11-10T07:37:15.105Z,10.76
2018-11-10T07:39:50.725Z,10.75
2018-11-10T07:42:24.941Z,10.84
2018-11-10T07:44:59.722Z,10.88
2018-11-10T07:47:37.060Z,10.81
2018-11-10T07:50:27.753Z,10.86
2018-11-10T07:53:00.743Z,10.83
2018-11-10T07:55:33.319Z,10.87
2018-11-10T07:58:08.464Z,10.87
2018-11-10T08:00:41.240Z,10.87
2018-11-10T08:03:13.415Z,10.88
2018-11-10T08:05:45.165Z,10.88
2018-11-10T08:08:21.324Z,10.87
2018-11-10T08:10:53.204Z,10.91
2018-11-10T08:13:28.231Z,10.89
2018-11-10T08:16:03.368Z,10.97
2018-11-10T08:18:37.569Z,11.01
2018-11-10T08:21:12.609Z,11.03
2018-11-10T08:23:46.312Z,11.11
2018-11-10T08:26:18.377Z,11.17
2018-11-10T08:28:51.582Z,11.25
2018-11-10T08:31:28.971Z,11.37
2018-11-10T08:34:01.843Z,11.50
2018-11-10T08:36:33.500Z,11.63
2018-11-10T08:39:06.137Z,11.70
2018-11-10T08:41:45.311Z,11.72
2018-11-10T08:44:19.540Z,11.81
2018-11-10T08:46:57.749Z,11.85
2018-11-10T08:49:32.770Z,12.02
2018-11-10T08:52:07.193Z,12.02
2018-11-10T08:54:42.957Z,12.10
2018-11-10T08:57:18.086Z,12.19
2018-11-10T09:02:41.460Z,12.54
2018-11-10T09:05:15.693Z,12.81
2018-11-10T09:07:47.746Z,12.91
2018-11-10T09:10:23.085Z,12.93
2018-11-10T09:12:56.178Z,12.95
2018-11-10T09:15:30.002Z,13.18
2018-11-10T09:18:03.089Z,13.13
2018-11-10T09:20:38.225Z,13.12
2018-11-10T09:23:12.831Z,13.13
2018-11-10T09:25:45.020Z,13.10
2018-11-10T09:28:20.672Z,13.28
2018-11-10T09:31:09.607Z,13.41
2018-11-10T09:33:43.422Z,13.44
2018-11-10T09:36:17.231Z,13.48
2018-11-10T09:38:56.410Z,13.48
2018-11-10T09:41:31.487Z,13.39
2018-11-10T09:44:05.945Z,13.23
2018-11-10T09:46:46.190Z,13.29
2018-11-10T09:49:25.599Z,13.28
2018-11-10T09:52:06.706Z,13.36
2018-11-10T09:54:45.836Z,13.30
2018-11-10T09:57:29.168Z,13.29
2018-11-10T10:00:04.916Z,13.34
2018-11-10T10:02:42.379Z,13.42
2018-11-10T10:05:24.894Z,13.39
2018-11-10T10:08:00.469Z,13.41
2018-11-10T10:13:37.779Z,13.42
2018-11-10T10:16:20.081Z,13.43
2018-11-10T10:19:04.548Z,13.51
2018-11-10T10:21:42.444Z,13.47
2018-11-10T10:24:26.694Z,13.46
2018-11-10T10:27:21.169Z,13.50
2018-11-10T10:46:39.956Z,13.63
2018-11-10T10:49:22.267Z,13.50
2018-11-10T10:51:56.889Z,13.48
2018-11-10T10:54:35.096Z,13.54
2018-11-10T10:57:08.357Z,13.64
2018-11-10T10:59:52.645Z,13.65
2018-11-10T11:02:32.691Z,13.71
2018-11-10T11:05:18.179Z,13.87
2018-11-10T11:07:55.263Z,13.93
2018-11-10T11:13:10.449Z,13.86
2018-11-10T11:15:54.242Z,13.79
2018-11-10T11:18:32.605Z,13.89
2018-11-10T11:21:12.931Z,13.99
2018-11-10T11:24:01.069Z,14.12
2018-11-10T11:26:35.774Z,14.23
2018-11-10T11:29:23.512Z,14.35
2018-11-10T11:31:58.607Z,14.42
2018-11-10T11:34:35.566Z,14.20
2018-11-10T11:37:12.339Z,14.25
2018-11-10T11:39:50.979Z,14.33
2018-11-10T11:45:09.963Z,14.30
2018-11-10T11:47:44.758Z,14.30
2018-11-10T11:50:20.033Z,14.32
2018-11-10T11:52:57.218Z,14.20
2018-11-10T11:55:36.501Z,14.33
2018-11-10T11:58:14.066Z,14.22
2018-11-10T12:00:56.216Z,14.27
2018-11-10T12:03:30.338Z,14.45
2018-11-10T12:09:07.264Z,14.75
2018-11-10T12:11:47.533Z,14.95
2018-11-10T12:14:23.065Z,14.87
2018-11-10T12:17:06.082Z,14.77
2018-11-10T12:19:44.037Z,14.58
2018-11-10T12:22:21.286Z,14.60
2018-11-10T12:24:54.723Z,14.74
2018-11-10T12:27:34.245Z,14.58
2018-11-10T12:33:05.281Z,14.54
2018-11-10T12:35:46.229Z,14.52
2018-11-10T12:38:19.210Z,14.57
2018-11-10T12:40:56.220Z,14.65
2018-11-10T12:43:31.052Z,14.68
2018-11-10T12:46:11.721Z,14.72
2018-11-10T12:51:44.334Z,14.59
2018-11-10T12:54:20.864Z,14.58
2018-11-10T12:56:57.873Z,14.49
2018-11-10T12:59:35.406Z,14.42
2018-11-10T13:02:13.986Z,14.31
2018-11-10T13:04:50.858Z,14.06
2018-11-10T13:07:43.550Z,13.77
2018-11-10T13:10:27.697Z,13.62
2018-11-10T13:13:09.344Z,13.45
2018-11-10T13:15:59.031Z,13.43
2018-11-10T13:18:37.753Z,13.33
2018-11-10T13:21:25.167Z,13.24
2018-11-10T13:24:13.747Z,13.15
2018-11-10T13:26:59.723Z,13.18
2018-11-10T13:29:39.570Z,13.16
2018-11-10T13:35:43.088Z,13.20
2018-11-10T13:44:30.074Z,13.10
2018-11-10T13:47:16.042Z,13.11
2018-11-10T13:49:55.512Z,13.25
2018-11-10T13:52:39.706Z,13.27
2018-11-10T13:55:26.643Z,13.36
2018-11-10T13:58:12.052Z,13.35
2018-11-10T14:00:48.202Z,13.44
2018-11-10T14:03:24.267Z,13.39
2018-11-10T14:06:20.708Z,13.49
2018-11-10T14:09:01.274Z,13.48
2018-11-10T14:11:43.725Z,13.58
2018-11-10T14:14:25.243Z,13.67
2018-11-10T14:17:10.749Z,13.69
2018-11-10T14:19:50.668Z,13.67
2018-11-10T14:22:32.244Z,13.63
2018-11-10T14:25:09.680Z,13.69
2018-11-10T14:27:48.272Z,13.69
2018-11-10T14:30:25.453Z,13.79
2018-11-10T14:33:09.401Z,13.85
2018-11-10T14:35:49.756Z,13.89
2018-11-10T14:38:28.972Z,13.91
2018-11-10T14:43:49.301Z,13.66
2018-11-10T14:46:23.523Z,13.63
2018-11-10T14:48:59.704Z,13.64
2018-11-10T14:51:34.109Z,13.64
2018-11-10T14:54:13.203Z,13.75
2018-11-10T15:00:31.299Z,13.79
2018-11-10T15:03:07.070Z,13.75
2018-11-10T15:05:43.698Z,14.06
2018-11-10T15:08:20.499Z,14.06
2018-11-10T15:11:06.703Z,13.91
2018-11-10T15:13:44.302Z,13.77
2018-11-10T15:16:33.256Z,13.69
2018-11-10T15:24:48.265Z,13.64
2018-11-10T15:27:22.680Z,13.58
2018-11-10T15:29:59.768Z,13.64
2018-11-10T15:32:35.827Z,13.87
2018-11-10T15:35:20.499Z,14.01
2018-11-10T15:37:57.669Z,13.87
2018-11-10T15:40:40.900Z,14.16
2018-11-10T15:43:21.806Z,14.11
2018-11-10T15:46:00.051Z,14.21
2018-11-10T15:48:45.362Z,14.28
2018-11-10T15:51:19.168Z,14.24
2018-11-10T15:53:54.577Z,14.25
2018-11-10T15:56:31.760Z,14.31
2018-11-10T15:59:09.694Z,14.32
2018-11-10T16:01:40.537Z,14.37
2018-11-10T16:04:19.233Z,14.21
2018-11-10T16:06:55.010Z,14.30
2018-11-10T16:09:41.306Z,14.27
2018-11-10T16:12:25.127Z,14.08
2018-11-10T16:15:02.333Z,13.88
2018-11-10T16:17:41.981Z,13.80
2018-11-10T16:20:17.830Z,13.78
2018-11-10T16:22:59.317Z,13.83
2018-11-10T16:25:35.994Z,13.97
2018-11-10T16:28:21.012Z,14.30
2018-11-10T16:30:55.892Z,14.27
2018-11-10T16:33:33.999Z,14.21
2018-11-10T16:36:16.925Z,14.00
2018-11-10T16:39:07.212Z,14.02
2018-11-10T16:41:44.401Z,13.94
2018-11-10T16:44:22.714Z,13.86
2018-11-10T16:47:06.859Z,13.62
2018-11-10T16:52:36.999Z,13.42
2018-11-10T16:55:15.610Z,13.53
2018-11-10T16:57:50.142Z,13.35
2018-11-10T17:00:27.430Z,13.31
2018-11-10T17:03:02.635Z,13.22
2018-11-10T17:05:40.959Z,13.35
2018-11-10T17:08:22.984Z,13.23
2018-11-10T17:11:03.336Z,13.12
2018-11-10T17:13:38.559Z,13.07
2018-11-10T17:16:32.252Z,13.07
2018-11-10T17:19:14.145Z,13.09
2018-11-10T17:21:52.167Z,13.07
2018-11-10T17:24:36.095Z,13.28
2018-11-10T17:27:08.313Z,13.40
2018-11-10T17:29:42.789Z,13.58
2018-11-10T17:32:18.505Z,13.69
2018-11-10T17:34:55.011Z,13.67
2018-11-10T17:37:34.870Z,13.66
2018-11-10T17:40:15.654Z,13.55
2018-11-10T17:42:50.966Z,13.55
2018-11-10T17:45:29.686Z,13.95
2018-11-10T17:48:11.145Z,14.04
2018-11-10T17:50:49.453Z,14.48
2018-11-10T17:53:22.990Z,14.41
2018-11-10T17:56:00.479Z,14.35
2018-11-10T17:58:38.688Z,14.54
2018-11-10T18:01:17.318Z,14.55
2018-11-10T18:03:58.474Z,14.53
2018-11-10T18:06:33.829Z,14.56
2018-11-10T18:09:14.802Z,14.55
2018-11-10T18:11:51.401Z,14.73
2018-11-10T18:14:36.310Z,14.68
2018-11-10T18:17:15.781Z,14.81
2018-11-10T18:19:52.966Z,14.96
2018-11-10T18:22:32.815Z,15.04
2018-11-10T18:25:11.760Z,15.00
2018-11-10T18:27:43.303Z,15.12
2018-11-10T18:30:20.549Z,14.96
2018-11-10T18:32:55.709Z,15.20
2018-11-10T18:35:35.578Z,15.32
2018-11-10T18:38:20.029Z,15.25
2018-11-10T18:41:01.070Z,15.33
2018-11-10T18:43:40.917Z,15.42
2018-11-10T18:46:22.333Z,15.29
2018-11-10T18:49:01.165Z,15.70
2018-11-10T18:51:34.864Z,15.46
2018-11-10T18:54:10.204Z,15.50
2018-11-10T18:56:46.530Z,15.46
2018-11-10T18:59:19.155Z,15.67
2018-11-10T19:01:53.672Z,15.64
2018-11-10T19:04:27.702Z,15.86
2018-11-10T19:06:58.830Z,15.59
2018-11-10T19:09:32.411Z,15.64
2018-11-10T19:12:03.188Z,15.51
2018-11-10T19:14:34.391Z,15.20
2018-11-10T19:17:11.353Z,14.84
2018-11-10T19:19:44.179Z,14.95
2018-11-10T19:22:16.954Z,14.92
2018-11-10T19:24:48.917Z,14.97
2018-11-10T19:27:22.892Z,14.72
2018-11-10T19:29:56.407Z,14.58
2018-11-10T19:32:28.401Z,14.36
2018-11-10T19:35:00.866Z,14.30
2018-11-10T19:37:34.446Z,14.26
2018-11-10T19:40:10.207Z,14.08
2018-11-10T19:42:45.562Z,13.85
2018-11-10T19:45:22.850Z,13.87
2018-11-10T19:47:54.200Z,13.72
2018-11-10T19:50:27.606Z,13.44
2018-11-10T19:53:03.430Z,13.07
2018-11-10T19:55:34.673Z,12.88
2018-11-10T19:58:08.393Z,12.95
2018-11-10T20:00:39.948Z,12.98
2018-11-10T20:03:13.035Z,12.89
2018-11-10T20:05:46.032Z,12.89
2018-11-10T20:08:17.174Z,12.77
2018-11-10T20:10:50.160Z,12.81
2018-11-10T20:13:27.545Z,12.77
2018-11-10T20:15:58.588Z,12.67
2018-11-10T20:18:30.249Z,12.77
2018-11-10T20:21:03.556Z,12.86
2018-11-10T20:23:40.013Z,12.84
2018-11-10T20:26:12.654Z,12.78
2018-11-10T20:28:47.519Z,12.82
2018-11-10T20:31:26.142Z,12.79
2018-11-10T20:34:00.255Z,12.81
2018-11-10T20:39:12.793Z,12.59
2018-11-10T20:41:43.315Z,12.71
2018-11-10T20:44:16.095Z,12.57
2018-11-10T20:46:46.631Z,12.58
2018-11-10T20:49:21.417Z,12.47
2018-11-10T20:52:02.544Z,12.56
2018-11-10T20:54:38.204Z,12.47
2018-11-10T20:57:13.793Z,12.48
2018-11-10T20:59:49.624Z,12.42
2018-11-10T21:02:21.764Z,12.37
2018-11-10T21:04:58.495Z,12.41
2018-11-10T21:07:33.673Z,12.40
2018-11-10T21:10:09.212Z,12.32
2018-11-10T21:12:45.004Z,12.53
2018-11-10T21:15:20.712Z,12.40
2018-11-10T21:17:51.770Z,12.41
2018-11-10T21:20:24.335Z,12.38
2018-11-10T21:22:59.489Z,12.41
2018-11-10T21:25:40.345Z,12.51
2018-11-10T21:28:12.590Z,12.45
2018-11-10T21:30:47.137Z,12.52
2018-11-10T21:33:19.234Z,12.57
2018-11-10T21:35:50.513Z,12.60
2018-11-10T21:38:23.176Z,12.62
2018-11-10T21:41:08.261Z,12.61
2018-11-10T21:43:39.939Z,12.89
2018-11-10T21:46:18.642Z,12.90
2018-11-10T21:48:50.759Z,12.84
2018-11-10T21:51:24.451Z,12.87
2018-11-10T21:53:57.500Z,12.76
2018-11-10T21:56:34.581Z,12.84
2018-11-10T21:59:07.573Z,13.03
2018-11-10T22:01:39.881Z,13.19
2018-11-10T22:04:14.783Z,13.15
2018-11-10T22:06:51.911Z,13.49
2018-11-10T22:09:30.943Z,13.75
2018-11-10T22:12:06.536Z,14.21
2018-11-10T22:14:42.950Z,13.73
2018-11-10T22:17:20.040Z,13.85
2018-11-10T22:19:56.351Z,13.67
2018-11-10T22:22:36.067Z,13.57
2018-11-10T22:25:13.205Z,13.78
2018-11-10T22:27:47.658Z,14.01
2018-11-10T22:30:21.756Z,14.19
2018-11-10T22:32:57.579Z,14.53
2018-11-10T22:35:31.571Z,14.38
2018-11-10T22:40:47.067Z,14.01
2018-11-10T22:43:22.148Z,14.22
2018-11-10T22:46:01.763Z,13.99
2018-11-10T22:48:38.377Z,14.06
2018-11-10T22:51:12.430Z,14.19
2018-11-10T22:53:49.812Z,14.18
2018-11-10T22:56:31.679Z,14.44
2018-11-10T22:59:15.997Z,14.21
2018-11-10T23:01:54.652Z,13.90
2018-11-10T23:04:29.066Z,13.79
2018-11-10T23:07:04.722Z,14.09
2018-11-10T23:09:39.241Z,14.02
2018-11-10T23:12:12.028Z,13.78
2018-11-10T23:14:47.370Z,13.83
2018-11-10T23:17:24.140Z,13.81
2018-11-10T23:19:57.134Z,13.65
2018-11-10T23:22:29.726Z,13.54
2018-11-10T23:25:02.828Z,13.34
2018-11-10T23:27:33.326Z,13.07
2018-11-10T23:30:08.089Z,12.97
2018-11-10T23:32:42.577Z,12.81
2018-11-10T23:35:18.129Z,12.72
2018-11-10T23:37:49.579Z,12.71
2018-11-10T23:40:20.767Z,12.69
2018-11-10T23:42:52.589Z,12.51
2018-11-10T23:45:23.627Z,12.34
2018-11-10T23:47:56.721Z,12.30
2018-11-10T23:50:30.917Z,12.25
2018-11-10T23:53:05.147Z,12.30
2018-11-10T23:55:40.285Z,12.20
2018-11-10T23:58:20.339Z,12.21
